Time;durP1;ratioP1;P1;durP2;ratioP2;P2;SDS_P1;SDS_P2;PMS_P1;PMS_P2;Temp;Humidity;BMP_temperature;BMP_pressure;BME280_temperature;BME280_humidity;BME280_pressure;Samples;Min_cycle;Max_cycle;Signal;HPM_P1;HPM_P2
2021/06/02 00:02:44;;;;;;;3.83;3.47;;;16.10;1.00;;;;;;5111851;28;20611;-63
2021/06/02 00:05:11;;;;;;;3.93;3.63;;;16.10;1.00;;;;;;5109235;28;20182;-63
2021/06/02 00:07:40;;;;;;;5.80;4.63;;;16.10;1.00;;;;;;5111516;28;20428;-64
2021/06/02 00:10:07;;;;;;;6.53;4.07;;;16.10;1.00;;;;;;5112159;28;20789;-64
2021/06/02 00:12:33;;;;;;;4.10;3.70;;;16.00;1.00;;;;;;5111152;28;20435;-63
2021/06/02 00:14:59;;;;;;;5.20;4.10;;;15.90;1.00;;;;;;5111966;28;20448;-62
2021/06/02 00:17:25;;;;;;;4.70;4.23;;;15.80;1.00;;;;;;5111125;28;20561;-63
2021/06/02 00:19:51;;;;;;;4.80;4.40;;;15.70;1.00;;;;;;5111210;28;20474;-64
2021/06/02 00:22:16;;;;;;;5.90;3.97;;;15.70;1.00;;;;;;5108763;28;20208;-64
2021/06/02 00:24:42;;;;;;;4.50;4.10;;;15.70;1.00;;;;;;5092943;28;20450;-64
2021/06/02 00:27:11;;;;;;;4.73;4.23;;;15.60;1.00;;;;;;5103474;27;20528;-64
2021/06/02 00:29:38;;;;;;;4.87;4.47;;;15.70;1.00;;;;;;5099457;27;20424;-63
2021/06/02 00:32:05;;;;;;;4.83;4.30;;;15.60;1.00;;;;;;5106464;28;20432;-63
2021/06/02 00:34:31;;;;;;;5.30;4.20;;;15.50;1.00;;;;;;5092619;28;20564;-64
2021/06/02 00:37:01;;;;;;;5.10;4.30;;;15.60;1.00;;;;;;5111293;28;20968;-63
2021/06/02 00:39:27;;;;;;;4.90;4.30;;;15.50;1.00;;;;;;5110481;28;20668;-63
2021/06/02 00:41:54;;;;;;;5.00;4.60;;;15.50;1.00;;;;;;5109387;28;20471;-62
2021/06/02 00:44:21;;;;;;;5.77;5.17;;;15.40;1.00;;;;;;5111172;28;20457;-62
2021/06/02 00:46:48;;;;;;;6.03;4.77;;;15.40;1.00;;;;;;5091577;28;20439;-63
2021/06/02 00:49:23;;;;;;;6.13;5.33;;;15.40;1.00;;;;;;5091494;28;20440;-63
2021/06/02 00:52:03;;;;;;;4.50;4.10;;;15.30;1.00;;;;;;5110666;28;20439;-63
2021/06/02 00:54:34;;;;;;;5.10;4.50;;;15.30;1.00;;;;;;5092105;28;20440;-64
2021/06/02 00:57:05;;;;;;;5.40;4.70;;;15.30;1.00;;;;;;5083222;28;20448;-62
2021/06/02 00:59:39;;;;;;;5.80;5.17;;;15.20;1.00;;;;;;5108412;28;20509;-63
2021/06/02 01:02:11;;;;;;;5.63;5.07;;;15.30;1.00;;;;;;5110445;28;20496;-63
2021/06/02 01:04:36;;;;;;;5.83;4.87;;;15.20;1.00;;;;;;5110578;28;20937;-62
2021/06/02 01:07:04;;;;;;;5.50;5.00;;;15.30;1.00;;;;;;5107432;28;20452;-63
2021/06/02 01:09:33;;;;;;;5.80;4.73;;;15.20;1.00;;;;;;5090530;28;20186;-64
2021/06/02 01:11:59;;;;;;;5.17;4.50;;;15.20;1.00;;;;;;5109118;28;20443;-63
2021/06/02 01:14:26;;;;;;;5.23;4.70;;;15.10;1.00;;;;;;5110621;28;20484;-63
2021/06/02 01:16:54;;;;;;;9.07;4.60;;;15.10;1.00;;;;;;5109140;27;20193;-62
2021/06/02 01:19:22;;;;;;;5.80;4.70;;;15.10;1.00;;;;;;5110712;28;20465;-62
2021/06/02 01:21:55;;;;;;;5.37;4.50;;;15.20;1.00;;;;;;5110040;28;20484;-63
2021/06/02 01:24:24;;;;;;;4.50;4.10;;;15.10;1.00;;;;;;5110135;28;20448;-63
2021/06/02 01:26:53;;;;;;;6.40;4.20;;;15.10;1.00;;;;;;5110131;28;20439;-63
2021/06/02 01:29:19;;;;;;;5.00;4.50;;;15.10;1.00;;;;;;5110235;28;20436;-63
2021/06/02 01:32:10;;;;;;;4.97;4.37;;;15.10;1.00;;;;;;5110631;28;20778;-63
2021/06/02 01:35:05;;;;;;;4.23;3.80;;;15.00;1.00;;;;;;5091902;28;20185;-63
2021/06/02 01:38:11;;;;;;;4.33;3.93;;;14.90;1.00;;;;;;5109979;28;20443;-63
2021/06/02 01:41:19;;;;;;;5.03;4.63;;;14.90;1.00;;;;;;5109397;28;20952;-63
2021/06/02 01:44:09;;;;;;;4.97;4.57;;;14.90;1.00;;;;;;5110239;28;20806;-62
2021/06/02 01:47:11;;;;;;;5.53;4.90;;;14.90;1.00;;;;;;5087099;28;20488;-63
2021/06/02 01:50:13;;;;;;;5.93;4.50;;;14.80;1.00;;;;;;5109042;28;20448;-63
2021/06/02 01:53:13;;;;;;;5.27;4.77;;;14.70;1.00;;;;;;5109087;28;20534;-63
2021/06/02 01:56:29;;;;;;;4.67;4.00;;;14.70;1.00;;;;;;5108614;28;20451;-64
2021/06/02 01:59:44;;;;;;;6.27;4.70;;;14.70;1.00;;;;;;5075199;28;20452;-63
2021/06/02 02:02:41;;;;;;;4.20;3.80;;;14.60;1.00;;;;;;5112531;28;20515;-63
2021/06/02 02:05:39;;;;;;;4.27;3.53;;;14.50;1.00;;;;;;5113690;28;21008;-64
2021/06/02 02:08:16;;;;;;;5.80;4.47;;;14.50;1.00;;;;;;5114156;28;20793;-64
2021/06/02 02:10:51;;;;;;;5.13;4.40;;;14.50;1.00;;;;;;5092866;28;20515;-63
2021/06/02 02:13:42;;;;;;;5.80;4.13;;;14.50;1.00;;;;;;5113631;28;20435;-63
2021/06/02 02:16:17;;;;;;;5.57;4.50;;;14.50;1.00;;;;;;5113453;27;20432;-63
2021/06/02 02:19:08;;;;;;;4.70;4.30;;;14.40;1.00;;;;;;5112842;27;20621;-65
2021/06/02 02:21:43;;;;;;;4.60;4.20;;;14.50;1.00;;;;;;5102214;28;20467;-63
2021/06/02 02:24:11;;;;;;;5.70;4.80;;;14.40;1.00;;;;;;5094755;28;20473;-63
2021/06/02 02:26:49;;;;;;;5.27;4.77;;;14.40;1.00;;;;;;5113400;28;20432;-64
2021/06/02 02:29:44;;;;;;;5.90;4.87;;;14.40;1.00;;;;;;5094531;28;20446;-63
2021/06/02 02:32:35;;;;;;;4.27;3.90;;;14.30;1.00;;;;;;5113144;28;20475;-63
2021/06/02 02:35:36;;;;;;;5.17;4.67;;;15.00;1.00;;;;;;5113673;27;20447;-63
2021/06/02 02:38:06;;;;;;;4.70;4.17;;;14.30;1.00;;;;;;5094565;28;20535;-63
2021/06/02 02:40:47;;;;;;;5.83;4.70;;;14.30;1.00;;;;;;5113271;28;20560;-63
2021/06/02 02:43:27;;;;;;;4.70;3.80;;;14.20;1.00;;;;;;5113330;28;21046;-64
2021/06/02 02:46:07;;;;;;;5.07;4.63;;;14.30;1.00;;;;;;5112073;28;20440;-63
2021/06/02 02:48:37;;;;;;;4.67;4.27;;;14.30;1.00;;;;;;5092151;28;20795;-63
2021/06/02 02:51:41;;;;;;;4.80;4.30;;;14.30;1.00;;;;;;5111642;27;20462;-62
2021/06/02 02:54:12;;;;;;;4.03;3.73;;;14.30;1.00;;;;;;5112266;28;21036;-62
2021/06/02 02:56:45;;;;;;;5.57;5.00;;;14.40;1.00;;;;;;5112996;28;20518;-64
2021/06/02 02:59:19;;;;;;;5.37;4.60;;;14.30;1.00;;;;;;5112727;28;20484;-62
2021/06/02 03:01:52;;;;;;;5.10;4.67;;;14.40;1.00;;;;;;5112628;28;20482;-63
2021/06/02 03:04:23;;;;;;;4.30;3.90;;;14.40;1.00;;;;;;5091077;28;20436;-63
2021/06/02 03:06:57;;;;;;;4.67;4.27;;;14.40;1.00;;;;;;5109673;28;20431;-64
2021/06/02 03:09:28;;;;;;;4.00;3.70;;;14.30;1.00;;;;;;5113484;27;20446;-64
2021/06/02 03:12:18;;;;;;;4.87;4.37;;;14.30;1.00;;;;;;5110882;27;20466;-63
2021/06/02 03:14:49;;;;;;;5.23;4.60;;;14.20;1.00;;;;;;5111847;27;20459;-63
2021/06/02 03:17:27;;;;;;;5.00;4.57;;;14.20;1.00;;;;;;5094015;28;20448;-63
2021/06/02 03:20:15;;;;;;;4.13;3.83;;;14.30;1.00;;;;;;5111164;28;20512;-64
2021/06/02 03:23:05;;;;;;;6.00;4.10;;;14.40;1.00;;;;;;5112116;28;20929;-64
2021/06/02 03:25:36;;;;;;;4.60;4.20;;;14.40;1.00;;;;;;5094612;28;20431;-63
2021/06/02 03:28:33;;;;;;;5.27;4.73;;;14.40;1.00;;;;;;5109549;28;21141;-63
2021/06/02 03:31:40;;;;;;;5.00;3.97;;;14.50;1.00;;;;;;5110842;27;20430;-64
2021/06/02 03:34:25;;;;;;;4.83;4.43;;;14.70;1.00;;;;;;5111939;28;20432;-62
2021/06/02 03:37:28;;;;;;;5.33;4.77;;;14.70;1.00;;;;;;5111907;28;20463;-63
2021/06/02 03:40:28;;;;;;;4.90;4.50;;;14.60;1.00;;;;;;5093782;28;20511;-62
2021/06/02 03:43:04;;;;;;;4.73;4.13;;;14.60;1.00;;;;;;5107129;28;20545;-64
2021/06/02 03:45:51;;;;;;;4.70;4.30;;;14.60;1.00;;;;;;5110407;27;20439;-64
2021/06/02 03:48:30;;;;;;;4.40;4.00;;;14.70;1.00;;;;;;5110961;28;20500;-63
2021/06/02 03:51:01;;;;;;;5.77;4.50;;;14.80;1.00;;;;;;5112270;28;20959;-63
2021/06/02 03:53:33;;;;;;;5.43;4.30;;;14.80;1.00;;;;;;5092170;28;20439;-63
2021/06/02 03:56:18;;;;;;;4.73;4.10;;;14.90;1.00;;;;;;5107536;28;20432;-63
2021/06/02 03:59:15;;;;;;;9.17;4.17;;;14.90;1.00;;;;;;5107732;28;20560;-64
2021/06/02 04:01:47;;;;;;;6.97;4.80;;;14.90;1.00;;;;;;5110410;28;20452;-64
2021/06/02 04:04:25;;;;;;;4.67;4.27;;;14.90;1.00;;;;;;5111945;28;20454;-63
2021/06/02 04:07:08;;;;;;;4.90;4.33;;;15.00;1.00;;;;;;5102150;27;20486;-62
2021/06/02 04:09:54;;;;;;;7.20;5.20;;;15.20;1.00;;;;;;5111217;28;20439;-62
2021/06/02 04:12:45;;;;;;;5.10;3.93;;;15.20;1.00;;;;;;5111732;28;20439;-62
2021/06/02 04:15:13;;;;;;;4.60;4.20;;;15.30;1.00;;;;;;5093475;28;20497;-61
2021/06/02 04:17:40;;;;;;;4.40;3.97;;;15.30;1.00;;;;;;5110676;28;21007;-62
2021/06/02 04:20:07;;;;;;;5.30;4.00;;;15.40;1.00;;;;;;5110405;28;20504;-62
2021/06/02 04:22:35;;;;;;;5.90;4.30;;;15.40;1.00;;;;;;5111316;28;20463;-61
2021/06/02 04:25:02;;;;;;;5.03;4.20;;;15.50;1.00;;;;;;5110573;28;20843;-62
2021/06/02 04:27:30;;;;;;;5.10;4.13;;;15.50;1.00;;;;;;5111300;28;20472;-61
2021/06/02 04:30:02;;;;;;;5.30;4.37;;;15.50;1.00;;;;;;5108592;27;20436;-61
2021/06/02 04:32:37;;;;;;;5.53;4.57;;;15.60;1.00;;;;;;5110622;28;20507;-62
2021/06/02 04:35:04;;;;;;;5.63;4.80;;;15.70;1.00;;;;;;5110217;28;20471;-58
2021/06/02 04:37:30;;;;;;;4.83;4.33;;;15.70;1.00;;;;;;5110425;28;20459;-58
2021/06/02 04:39:55;;;;;;;5.27;4.43;;;15.80;1.00;;;;;;5110270;28;20937;-58
2021/06/02 04:42:21;;;;;;;4.63;4.13;;;15.80;1.00;;;;;;5111146;28;20225;-59
2021/06/02 04:44:49;;;;;;;4.50;4.10;;;15.90;1.00;;;;;;5075508;28;20180;-59
2021/06/02 04:47:17;;;;;;;5.50;4.20;;;16.00;1.00;;;;;;5110580;28;20217;-60
2021/06/02 04:50:18;;;;;;;8.57;5.43;;;16.10;1.00;;;;;;5108950;28;20786;-59
2021/06/02 04:53:05;;;;;;;5.37;4.63;;;16.40;1.00;;;;;;5102799;27;20469;-58
2021/06/02 04:55:48;;;;;;;9.87;7.63;;;16.60;1.00;;;;;;5107888;28;20836;-59
2021/06/02 04:58:22;;;;;;;8.60;7.27;;;16.80;1.00;;;;;;5109830;28;20819;-59
2021/06/02 05:01:25;;;;;;;5.27;4.50;;;17.00;1.00;;;;;;5109203;28;20446;-59
2021/06/02 05:04:48;;;;;;;6.53;4.80;;;17.10;1.00;;;;;;5110074;28;20435;-61
2021/06/02 05:07:53;;;;;;;6.17;4.90;;;17.20;1.00;;;;;;5058324;28;20500;-59
2021/06/02 05:10:35;;;;;;;4.83;4.43;;;17.30;1.00;;;;;;5089002;28;20398;-60
2021/06/02 05:13:38;;;;;;;8.70;4.30;;;17.20;1.00;;;;;;5109863;28;20785;-59
2021/06/02 05:16:37;;;;;;;5.17;4.67;;;17.30;1.00;;;;;;5110223;28;20537;-61
2021/06/02 05:22:28;;;;;;;6.60;4.60;;;17.10;1.00;;;;;;5109998;28;20978;-59
2021/06/02 05:25:27;;;;;;;12.10;5.00;;;17.10;1.00;;;;;;5109806;28;20444;-60
2021/06/02 05:28:30;;;;;;;5.67;4.77;;;17.20;1.00;;;;;;5091503;28;20496;-59
2021/06/02 05:31:24;;;;;;;5.67;5.17;;;17.40;1.00;;;;;;5091119;28;20458;-58
2021/06/02 05:33:49;;;;;;;4.80;4.27;;;17.50;1.00;;;;;;5109795;28;20855;-59
2021/06/02 05:36:45;;;;;;;7.00;4.30;;;17.70;1.00;;;;;;5109714;28;20444;-58
2021/06/02 05:39:40;;;;;;;5.30;4.60;;;17.90;1.00;;;;;;5091746;28;20236;-59
2021/06/02 05:42:36;;;;;;;6.10;5.30;;;18.10;1.00;;;;;;5108806;28;20472;-58
2021/06/02 05:45:26;;;;;;;5.20;4.70;;;18.60;1.00;;;;;;5109394;28;20432;-60
2021/06/02 05:48:13;;;;;;;5.93;4.27;;;18.80;1.00;;;;;;5108551;28;20773;-60
2021/06/02 05:51:05;;;;;;;7.50;6.10;;;19.10;1.00;;;;;;5091859;28;20439;-59
2021/06/02 05:53:57;;;;;;;5.50;5.00;;;19.20;1.00;;;;;;5109216;28;20443;-59
2021/06/02 05:56:46;;;;;;;5.80;4.00;;;19.40;1.00;;;;;;5109245;28;20438;-60
2021/06/02 05:59:15;;;;;;;8.47;5.00;;;19.70;1.00;;;;;;5110297;28;20460;-59
2021/06/02 06:02:10;;;;;;;5.20;4.80;;;20.00;1.00;;;;;;5109081;28;20467;-59
2021/06/02 06:05:01;;;;;;;7.87;5.47;;;20.10;1.00;;;;;;5108954;28;20443;-59
2021/06/02 06:08:01;;;;;;;4.80;4.30;;;20.40;1.00;;;;;;5109159;28;20477;-59
2021/06/02 06:11:03;;;;;;;5.97;5.00;;;20.60;1.00;;;;;;5109733;28;20477;-61
2021/06/02 06:14:06;;;;;;;5.97;4.30;;;20.40;1.00;;;;;;5090947;28;20446;-59
2021/06/02 06:17:03;;;;;;;5.63;4.33;;;20.20;1.00;;;;;;5109495;28;20463;-59
2021/06/02 06:19:41;;;;;;;5.97;4.90;;;20.30;1.00;;;;;;5108928;28;20431;-59
2021/06/02 06:22:43;;;;;;;7.03;4.90;;;20.60;1.00;;;;;;5109866;28;20494;-59
2021/06/02 06:25:14;;;;;;;8.10;4.80;;;20.90;1.00;;;;;;5108698;28;20446;-60
2021/06/02 06:28:06;;;;;;;5.07;4.57;;;21.10;1.00;;;;;;5102321;28;20460;-60
2021/06/02 06:30:34;;;;;;;7.90;4.70;;;21.30;1.00;;;;;;5091468;28;20444;-60
2021/06/02 06:33:12;;;;;;;4.80;4.40;;;21.40;1.00;;;;;;5091446;28;20421;-60
2021/06/02 06:35:38;;;;;;;5.37;4.77;;;21.40;1.00;;;;;;5103577;28;20440;-60
2021/06/02 06:38:08;;;;;;;6.10;4.80;;;21.10;1.00;;;;;;5091267;28;20440;-59
2021/06/02 06:40:35;;;;;;;5.10;4.70;;;20.70;1.00;;;;;;5091405;28;20443;-60
2021/06/02 06:43:04;;;;;;;5.73;4.50;;;20.80;1.00;;;;;;5091064;28;20426;-59
2021/06/02 06:45:39;;;;;;;10.40;4.93;;;20.90;1.00;;;;;;5077709;28;20435;-59
2021/06/02 06:48:21;;;;;;;4.57;4.17;;;21.00;1.00;;;;;;5113282;28;20438;-59
2021/06/02 06:50:54;;;;;;;5.03;4.53;;;20.90;1.00;;;;;;5112609;28;20435;-61
2021/06/02 06:53:22;;;;;;;6.90;4.67;;;21.30;1.00;;;;;;5112718;27;20940;-59
2021/06/02 06:55:50;;;;;;;6.10;5.50;;;21.20;1.00;;;;;;5112674;28;20854;-59
2021/06/02 06:58:15;;;;;;;5.30;4.20;;;21.10;1.00;;;;;;5113306;28;20581;-60
2021/06/02 07:00:43;;;;;;;5.67;4.93;;;21.10;1.00;;;;;;5112062;28;20489;-59
2021/06/02 07:03:09;;;;;;;5.13;4.60;;;21.30;1.00;;;;;;5107763;28;20194;-59
2021/06/02 07:05:35;;;;;;;5.20;4.60;;;;;;;;;;5112044;28;20931;-61
2021/06/02 07:08:02;;;;;;;7.13;4.60;;;21.80;1.00;;;;;;5112379;28;20444;-60
2021/06/02 07:10:27;;;;;;;6.40;5.80;;;21.60;1.00;;;;;;5094568;28;20503;-60
2021/06/02 07:12:54;;;;;;;4.77;4.20;;;21.50;1.00;;;;;;5112440;27;20446;-61
2021/06/02 07:15:21;;;;;;;9.10;4.67;;;21.60;1.00;;;;;;5091909;28;20186;-58
2021/06/02 07:17:47;;;;;;;5.33;4.83;;;21.50;1.00;;;;;;5111961;28;20928;-60
2021/06/02 07:20:26;;;;;;;6.30;4.80;;;21.40;1.00;;;;;;5112545;28;20440;-59
2021/06/02 07:22:54;;;;;;;5.70;5.10;;;21.40;1.00;;;;;;5112499;28;20535;-60
2021/06/02 07:25:23;;;;;;;6.40;4.90;;;21.30;1.00;;;;;;5105510;27;20767;-59
2021/06/02 07:27:49;;;;;;;7.57;5.20;;;21.30;1.00;;;;;;5112358;28;20449;-60
2021/06/02 07:30:16;;;;;;;6.70;5.40;;;21.50;1.00;;;;;;5093772;28;20516;-60
2021/06/02 07:32:43;;;;;;;5.60;5.10;;;21.40;1.00;;;;;;5113111;28;20479;-60
2021/06/02 07:35:09;;;;;;;7.00;5.07;;;21.20;1.00;;;;;;5111959;28;20949;-58
2021/06/02 07:37:35;;;;;;;5.03;4.53;;;21.20;1.00;;;;;;5111967;28;20455;-61
2021/06/02 07:40:01;;;;;;;6.33;4.80;;;21.30;1.00;;;;;;5106972;28;20457;-60
2021/06/02 07:42:26;;;;;;;5.17;4.70;;;21.50;1.00;;;;;;5089749;28;20230;-61
2021/06/02 07:44:53;;;;;;;5.87;4.57;;;21.80;1.00;;;;;;5094445;28;20178;-60
2021/06/02 07:47:19;;;;;;;5.70;4.50;;;22.10;1.00;;;;;;5111974;28;20525;-60
2021/06/02 07:49:45;;;;;;;5.03;4.53;;;22.30;1.00;;;;;;5103113;28;20539;-59
2021/06/02 07:52:10;;;;;;;5.07;4.57;;;22.40;1.00;;;;;;5103241;28;20231;-60
2021/06/02 07:54:36;;;;;;;5.80;4.87;;;22.60;1.00;;;;;;5111365;28;20239;-59
2021/06/02 07:57:02;;;;;;;5.10;4.63;;;22.70;1.00;;;;;;5091145;28;20245;-60
2021/06/02 07:59:27;;;;;;;6.90;5.50;;;22.90;1.00;;;;;;5109560;28;20197;-60
2021/06/02 08:01:53;;;;;;;6.23;5.10;;;23.10;1.00;;;;;;5111682;28;20587;-59
2021/06/02 08:04:19;;;;;;;5.60;4.60;;;23.30;1.00;;;;;;5109744;28;20253;-61
2021/06/02 08:06:44;;;;;;;5.80;4.63;;;23.60;1.00;;;;;;5074661;28;20190;-61
2021/06/02 08:09:16;;;;;;;4.43;4.13;;;23.70;1.00;;;;;;5111630;28;20174;-62
2021/06/02 08:11:42;;;;;;;5.57;4.97;;;23.90;1.00;;;;;;5110987;28;20190;-60
2021/06/02 08:14:07;;;;;;;5.17;4.67;;;24.00;1.00;;;;;;5109094;27;20441;-61
2021/06/02 08:16:33;;;;;;;5.67;4.77;;;24.20;1.00;;;;;;5084839;28;20277;-60
2021/06/02 08:18:58;;;;;;;10.57;4.43;;;24.20;1.00;;;;;;5110777;28;20570;-59
2021/06/02 08:21:24;;;;;;;5.50;4.30;;;24.40;1.00;;;;;;5107362;28;20221;-60
2021/06/02 08:23:49;;;;;;;5.33;4.00;;;24.10;1.00;;;;;;5111095;28;20482;-58
2021/06/02 08:26:15;;;;;;;4.60;4.20;;;24.00;1.00;;;;;;5093211;28;21407;-60
2021/06/02 08:28:40;;;;;;;4.67;4.00;;;24.00;1.00;;;;;;5091846;28;20505;-61
2021/06/02 08:31:06;;;;;;;5.20;4.20;;;24.00;1.00;;;;;;5086055;28;20177;-60
2021/06/02 08:33:31;;;;;;;3.80;3.50;;;24.00;1.00;;;;;;5107903;28;20205;-61
2021/06/02 08:35:57;;;;;;;3.70;3.40;;;24.20;1.00;;;;;;5110897;28;20651;-61
2021/06/02 08:38:23;;;;;;;3.80;3.50;;;24.60;1.00;;;;;;5111087;27;20181;-60
2021/06/02 08:40:48;;;;;;;4.47;4.07;;;24.70;1.00;;;;;;5096538;27;20568;-59
2021/06/02 08:43:19;;;;;;;4.77;4.37;;;24.70;1.00;;;;;;5086899;28;20560;-61
2021/06/02 08:45:45;;;;;;;4.50;3.60;;;24.70;1.00;;;;;;5111209;28;20182;-61
2021/06/02 08:48:12;;;;;;;7.40;3.83;;;24.70;1.00;;;;;;5111405;28;20414;-61
2021/06/02 08:50:37;;;;;;;4.00;3.70;;;24.80;1.00;;;;;;5110447;28;20702;-60
2021/06/02 08:53:03;;;;;;;5.77;4.40;;;24.90;1.00;;;;;;5111265;28;20439;-62
2021/06/02 08:55:29;;;;;;;5.00;4.40;;;25.10;1.00;;;;;;5111306;28;20193;-60
2021/06/02 08:57:55;;;;;;;3.87;3.37;;;25.20;1.00;;;;;;5092680;28;20193;-61
2021/06/02 09:00:22;;;;;;;6.70;3.70;;;25.20;1.00;;;;;;5092645;28;20186;-62
2021/06/02 09:02:56;;;;;;;3.77;3.47;;;25.20;1.00;;;;;;5111110;28;20221;-60
2021/06/02 09:05:24;;;;;;;3.30;3.00;;;25.30;1.00;;;;;;5111155;27;20789;-60
2021/06/02 09:07:51;;;;;;;3.63;3.33;;;25.40;1.00;;;;;;5110456;28;20439;-60
2021/06/02 09:10:18;;;;;;;3.77;3.47;;;25.40;1.00;;;;;;5111031;28;20439;-60
2021/06/02 09:12:44;;;;;;;4.20;3.73;;;25.50;1.00;;;;;;5092650;28;20444;-61
2021/06/02 09:15:13;;;;;;;3.67;3.37;;;25.70;1.00;;;;;;5111033;28;20439;-60
2021/06/02 09:17:59;;;;;;;3.87;3.40;;;25.70;1.00;;;;;;5110756;28;20928;-59
2021/06/02 09:20:52;;;;;;;4.97;4.17;;;25.60;1.00;;;;;;5110659;28;20485;-60
2021/06/02 09:23:41;;;;;;;5.40;3.40;;;25.50;1.00;;;;;;5106789;28;20503;-58
2021/06/02 09:26:12;;;;;;;3.63;3.30;;;25.70;1.00;;;;;;5110246;28;22105;-60
2021/06/02 09:28:44;;;;;;;4.87;3.17;;;25.60;1.00;;;;;;5111399;27;20760;-60
2021/06/02 09:31:25;;;;;;;3.90;3.57;;;25.60;1.00;;;;;;5110330;27;20406;-60
2021/06/02 09:33:52;;;;;;;4.70;3.63;;;25.40;1.00;;;;;;5101857;28;20930;-60
2021/06/02 09:36:23;;;;;;;3.37;3.07;;;25.60;1.00;;;;;;5110676;28;20829;-61
2021/06/02 09:38:54;;;;;;;4.07;3.63;;;25.90;1.00;;;;;;5092458;28;20474;-60
2021/06/02 09:41:20;;;;;;;5.43;2.90;;;25.90;1.00;;;;;;5095905;28;20858;-60
2021/06/02 09:43:45;;;;;;;7.47;3.80;;;26.00;1.00;;;;;;5090236;28;20529;-60
2021/06/02 09:46:14;;;;;;;3.73;3.00;;;26.10;1.00;;;;;;5092687;28;20179;-59
2021/06/02 09:48:49;;;;;;;3.37;3.17;;;26.00;1.00;;;;;;5110620;28;20182;-60
2021/06/02 09:51:35;;;;;;;3.83;3.53;;;25.70;1.00;;;;;;5110042;28;20796;-60
2021/06/02 09:54:03;;;;;;;4.37;3.87;;;25.30;1.00;;;;;;5110743;28;20437;-60
2021/06/02 09:56:43;;;;;;;5.80;3.63;;;25.30;1.00;;;;;;5092530;28;20444;-60
2021/06/02 09:59:10;;;;;;;5.03;3.00;;;25.50;1.00;;;;;;5110023;28;20509;-60
2021/06/02 10:02:00;;;;;;;4.27;3.43;;;25.70;1.00;;;;;;5095431;28;20443;-61
2021/06/02 10:04:35;;;;;;;3.90;3.07;;;25.80;1.00;;;;;;5110279;28;20406;-59
2021/06/02 10:07:02;;;;;;;3.70;3.40;;;26.00;1.00;;;;;;5110375;28;20781;-61
2021/06/02 10:09:29;;;;;;;4.90;3.80;;;24.80;1.00;;;;;;5094309;28;20482;-60
2021/06/02 10:11:56;;;;;;;2.90;2.70;;;26.30;1.00;;;;;;5110244;28;20414;-61
2021/06/02 10:14:22;;;;;;;3.60;3.30;;;26.40;1.00;;;;;;5110191;28;20895;-60
2021/06/02 10:16:47;;;;;;;4.50;3.40;;;26.30;1.00;;;;;;5110003;28;20442;-60
2021/06/02 10:19:13;;;;;;;5.13;3.60;;;26.50;1.00;;;;;;5094381;28;20186;-61
2021/06/02 10:21:47;;;;;;;4.53;3.80;;;26.60;1.00;;;;;;5102234;28;20250;-60
2021/06/02 10:24:13;;;;;;;4.73;4.00;;;26.70;1.00;;;;;;5114043;28;20631;-61
2021/06/02 10:26:39;;;;;;;7.93;3.23;;;26.70;1.00;;;;;;5095853;28;20428;-60
2021/06/02 10:29:06;;;;;;;4.90;3.43;;;26.80;1.00;;;;;;5093591;28;20570;-60
2021/06/02 10:31:33;;;;;;;5.30;3.10;;;26.70;1.00;;;;;;5093639;28;20439;-59
2021/06/02 10:33:59;;;;;;;4.17;2.80;;;26.70;1.00;;;;;;5109709;28;20906;-60
2021/06/02 10:36:26;;;;;;;2.93;2.73;;;26.70;1.00;;;;;;5113921;28;20410;-61
2021/06/02 10:38:58;;;;;;;2.97;2.70;;;26.90;1.00;;;;;;5113825;28;20462;-59
2021/06/02 10:41:42;;;;;;;4.90;2.77;;;26.80;1.00;;;;;;5095285;28;20450;-61
2021/06/02 10:44:15;;;;;;;4.60;3.30;;;26.80;1.00;;;;;;5110883;27;20443;-60
2021/06/02 10:46:43;;;;;;;3.60;3.30;;;26.80;1.00;;;;;;5093274;28;20463;-62
2021/06/02 10:49:09;;;;;;;3.80;2.93;;;27.30;1.00;;;;;;5098259;28;20452;-61
2021/06/02 10:51:37;;;;;;;3.03;2.80;;;27.20;1.00;;;;;;5095098;28;20891;-60
2021/06/02 10:54:08;;;;;;;3.17;2.97;;;27.50;1.00;;;;;;5113487;28;20510;-63
2021/06/02 10:56:35;;;;;;;3.03;2.83;;;27.50;1.00;;;;;;5095185;28;20528;-61
2021/06/02 10:59:01;;;;;;;3.60;3.30;;;27.50;1.00;;;;;;5113616;28;20403;-62
2021/06/02 11:01:30;;;;;;;3.77;3.30;;;27.60;1.00;;;;;;5113059;27;20912;-60
2021/06/02 11:04:09;;;;;;;3.67;3.37;;;27.70;1.00;;;;;;5066914;28;20800;-59
2021/06/02 11:06:37;;;;;;;3.23;2.83;;;27.70;1.00;;;;;;5092899;28;20444;-60
2021/06/02 11:09:04;;;;;;;3.90;3.10;;;27.80;1.00;;;;;;5095917;28;20461;-62
2021/06/02 11:11:36;;;;;;;3.10;2.90;;;27.70;1.00;;;;;;5112557;28;20463;-61
2021/06/02 11:14:19;;;;;;;3.63;3.07;;;27.30;1.00;;;;;;5112742;28;20937;-61
2021/06/02 11:16:55;;;;;;;5.73;3.10;;;27.20;1.00;;;;;;5112918;28;20775;-61
2021/06/02 11:19:23;;;;;;;3.10;2.80;;;27.30;1.00;;;;;;5113107;28;20419;-60
2021/06/02 11:21:55;;;;;;;3.10;2.90;;;27.40;1.00;;;;;;5113034;28;20446;-60
2021/06/02 11:24:40;;;;;;;5.43;3.10;;;27.60;1.00;;;;;;5112873;28;20432;-60
2021/06/02 11:32:31;;;;;;;3.40;3.10;;;28.60;1.00;;;;;;5113043;28;20918;-62
2021/06/02 11:35:05;;;;;;;5.07;3.23;;;29.00;1.00;;;;;;5112845;28;20425;-61
2021/06/02 11:37:33;;;;;;;3.77;3.30;;;29.00;1.00;;;;;;5094345;28;20516;-60
2021/06/02 11:40:02;;;;;;;4.20;3.37;;;29.10;1.00;;;;;;5112248;28;20941;-60
2021/06/02 11:42:38;;;;;;;3.83;3.10;;;29.50;1.00;;;;;;5095376;28;21036;-59
2021/06/02 11:45:08;;;;;;;3.23;3.00;;;30.00;1.00;;;;;;5112819;28;20442;-59
2021/06/02 11:47:35;;;;;;;3.83;3.43;;;30.80;1.00;;;;;;5094265;28;20422;-60
2021/06/02 11:50:14;;;;;;;3.73;3.40;;;31.20;1.00;;;;;;5112908;28;20753;-63
2021/06/02 11:52:44;;;;;;;5.70;3.17;;;30.70;1.00;;;;;;5112477;28;20414;-62
2021/06/02 11:55:16;;;;;;;3.77;3.47;;;29.70;1.00;;;;;;5112446;28;20447;-61
2021/06/02 11:57:46;;;;;;;3.77;3.33;;;29.30;1.00;;;;;;5112329;28;20443;-63
2021/06/02 12:00:26;;;;;;;3.10;2.90;;;29.40;1.00;;;;;;5112538;28;20463;-62
2021/06/02 12:03:07;;;;;;;3.57;3.27;;;29.40;1.00;;;;;;5082971;28;20462;-61
2021/06/02 12:05:38;;;;;;;3.17;2.97;;;29.00;1.00;;;;;;5092093;28;20917;-62
2021/06/02 12:08:14;;;;;;;3.63;3.33;;;29.00;1.00;;;;;;5102591;27;20836;-62
2021/06/02 12:10:43;;;;;;;5.43;3.33;;;29.10;1.00;;;;;;5093411;28;20418;-61
2021/06/02 12:13:23;;;;;;;3.93;3.63;;;28.60;1.00;;;;;;5104738;28;20790;-61
2021/06/02 12:15:50;;;;;;;5.33;3.43;;;28.20;1.00;;;;;;5091678;28;20930;-61
2021/06/02 12:18:35;;;;;;;3.40;3.10;;;28.00;1.00;;;;;;5086988;28;20414;-63
2021/06/02 12:21:22;;;;;;;4.67;3.13;;;28.20;1.00;;;;;;5111786;28;20443;-62
2021/06/02 12:24:02;;;;;;;3.30;3.00;;;28.30;1.00;;;;;;5111885;28;20416;-60
2021/06/02 12:26:43;;;;;;;5.53;3.07;;;28.40;1.00;;;;;;5102594;28;20491;-62
2021/06/02 12:29:11;;;;;;;4.80;3.50;;;28.60;1.00;;;;;;5073377;28;20475;-60
2021/06/02 12:31:43;;;;;;;3.57;3.27;;;28.50;1.00;;;;;;5091368;28;20465;-60
2021/06/02 12:34:27;;;;;;;3.67;3.37;;;28.70;1.00;;;;;;5101585;27;20436;-60
2021/06/02 12:37:02;;;;;;;3.37;3.00;;;29.10;1.00;;;;;;5093352;28;20488;-63
2021/06/02 12:39:32;;;;;;;4.17;3.23;;;29.10;1.00;;;;;;5092831;28;20513;-61
2021/06/02 12:42:00;;;;;;;4.77;3.90;;;29.00;1.00;;;;;;5110293;28;20474;-62
2021/06/02 12:44:30;;;;;;;3.50;3.20;;;29.20;1.00;;;;;;5111416;28;20440;-61
2021/06/02 12:47:07;;;;;;;3.03;2.83;;;27.60;1.00;;;;;;5111465;28;20939;-62
2021/06/02 12:49:33;;;;;;;4.27;2.97;;;29.40;1.00;;;;;;5111389;28;20436;-61
2021/06/02 12:52:00;;;;;;;7.27;3.33;;;29.50;1.00;;;;;;5093178;28;20439;-61
2021/06/02 12:54:30;;;;;;;4.50;2.90;;;29.70;1.00;;;;;;5092790;28;20204;-60
2021/06/02 12:56:57;;;;;;;3.60;3.10;;;29.70;1.00;;;;;;5111189;28;20471;-61
2021/06/02 12:59:27;;;;;;;3.20;3.00;;;29.70;1.00;;;;;;5111046;28;20704;-62
2021/06/02 13:01:57;;;;;;;4.80;3.40;;;29.90;1.00;;;;;;5092819;28;20460;-60
2021/06/02 13:04:23;;;;;;;3.37;3.07;;;29.80;1.00;;;;;;5110976;28;20428;-62
2021/06/02 13:06:56;;;;;;;10.90;4.03;;;29.90;1.00;;;;;;5111351;28;20426;-62
2021/06/02 13:09:23;;;;;;;2.80;2.60;;;29.60;1.00;;;;;;5111219;28;20650;-61
2021/06/02 13:11:53;;;;;;;6.40;3.00;;;29.70;1.00;;;;;;5111197;28;20556;-62
2021/06/02 13:14:22;;;;;;;4.13;2.80;;;29.60;1.00;;;;;;5111005;28;20417;-61
2021/06/02 13:16:52;;;;;;;4.33;3.40;;;29.50;1.00;;;;;;5110981;28;20436;-61
2021/06/02 13:19:17;;;;;;;2.97;2.77;;;29.50;1.00;;;;;;5111042;28;20422;-60
2021/06/02 13:21:50;;;;;;;5.70;2.83;;;29.60;1.00;;;;;;5110495;28;20560;-62
2021/06/02 13:24:23;;;;;;;3.57;3.27;;;29.60;1.00;;;;;;5106936;28;20257;-63
2021/06/02 13:26:53;;;;;;;7.00;3.00;;;29.60;1.00;;;;;;5110676;28;20407;-64
2021/06/02 13:29:19;;;;;;;3.10;2.90;;;29.70;1.00;;;;;;5110673;28;20431;-62
2021/06/02 13:31:50;;;;;;;4.30;3.43;;;29.70;1.00;;;;;;5110480;28;20424;-61
2021/06/02 13:34:38;;;;;;;3.33;2.83;;;29.50;1.00;;;;;;5110461;28;20182;-61
2021/06/02 13:37:13;;;;;;;2.80;2.60;;;29.60;1.00;;;;;;5110622;28;20446;-61
2021/06/02 13:39:40;;;;;;;3.57;3.10;;;29.70;1.00;;;;;;5110368;28;20447;-61
2021/06/02 13:42:08;;;;;;;3.00;2.80;;;29.70;1.00;;;;;;5110693;28;20475;-61
2021/06/02 13:44:33;;;;;;;4.53;3.07;;;29.70;1.00;;;;;;5110399;28;20513;-61
2021/06/02 13:46:59;;;;;;;5.20;2.80;;;29.70;1.00;;;;;;5105161;28;20496;-61
2021/06/02 13:49:35;;;;;;;5.60;2.90;;;29.90;1.00;;;;;;5106942;28;20191;-70